createdAt,value
2023-02-05T00:01:41.760Z,81.87
2023-02-05T00:04:11.199Z,78.02
2023-02-05T00:06:40.510Z,84.97
2023-02-05T00:09:10.084Z,79.95
2023-02-05T00:11:39.480Z,79.77
2023-02-05T00:14:08.768Z,79.97
2023-02-05T00:16:38.728Z,76.10
2023-02-05T00:19:08.092Z,76.87
2023-02-05T00:21:37.340Z,74.85
2023-02-05T00:24:06.858Z,80.40
2023-02-05T00:26:36.132Z,77.03
2023-02-05T00:29:06.258Z,76.65
2023-02-05T00:31:35.631Z,82.60
2023-02-05T00:34:05.479Z,81.15
2023-02-05T00:36:34.781Z,89.30
2023-02-05T00:39:04.975Z,82.95
2023-02-05T00:41:34.236Z,75.75
2023-02-05T00:44:03.724Z,70.97
2023-02-05T00:46:32.974Z,82.70
2023-02-05T00:49:02.374Z,75.55
2023-02-05T00:51:31.625Z,74.82
2023-02-05T00:54:01.483Z,78.47
2023-02-05T00:56:30.730Z,77.60
2023-02-05T00:59:00.435Z,79.20
2023-02-05T01:01:29.792Z,76.77
2023-02-05T01:03:59.298Z,73.78
2023-02-05T01:06:28.579Z,74.97
2023-02-05T01:08:58.293Z,83.15
2023-02-05T01:11:27.531Z,72.82
2023-02-05T01:13:56.935Z,85.30
2023-02-05T01:16:26.274Z,81.22
2023-02-05T01:18:56.861Z,87.12
2023-02-05T01:21:26.345Z,80.03
2023-02-05T01:23:56.641Z,88.27
2023-02-05T01:26:25.961Z,79.62
2023-02-05T01:28:55.475Z,77.50
2023-02-05T01:31:25.863Z,83.03
2023-02-05T01:33:55.349Z,76.87
2023-02-05T01:36:24.580Z,88.40
2023-02-05T01:38:54.853Z,77.92
2023-02-05T01:41:24.333Z,72.70
2023-02-05T01:44:14.333Z,81.90
2023-02-05T01:46:46.350Z,66.02
2023-02-05T01:49:19.063Z,65.50
2023-02-05T01:51:49.275Z,73.60
2023-02-05T01:54:19.451Z,73.35
2023-02-05T01:56:51.826Z,56.55
2023-02-05T01:59:25.899Z,55.05
2023-02-05T02:01:55.599Z,51.65
2023-02-05T02:04:40.212Z,41.83
2023-02-05T02:07:12.043Z,39.00
2023-02-05T02:09:43.485Z,32.17
2023-02-05T02:12:14.575Z,30.85
2023-02-05T02:14:46.313Z,26.27
2023-02-05T02:17:16.009Z,21.33
2023-02-05T02:20:03.551Z,24.00
2023-02-05T02:22:58.729Z,16.48
2023-02-05T02:25:34.209Z,13.90
2023-02-05T02:28:16.190Z,11.68
2023-02-05T02:30:48.994Z,13.32
2023-02-05T02:33:39.622Z,10.60
2023-02-05T02:36:14.359Z,9.23
2023-02-05T02:39:03.183Z,10.03
2023-02-05T02:41:35.655Z,9.28
2023-02-05T02:44:12.579Z,8.50
2023-02-05T02:46:45.141Z,10.55
2023-02-05T02:49:17.840Z,10.48
2023-02-05T02:51:48.183Z,10.35
2023-02-05T02:54:19.636Z,10.70
2023-02-05T02:56:50.315Z,7.85
2023-02-05T02:59:21.935Z,6.95
2023-02-05T03:01:56.964Z,9.78
2023-02-05T03:04:29.657Z,9.25
2023-02-05T03:07:04.589Z,8.10
2023-02-05T03:09:39.907Z,10.13
2023-02-05T03:12:09.337Z,11.60
2023-02-05T03:14:39.187Z,9.85
2023-02-05T03:17:08.952Z,8.80
2023-02-05T03:19:38.236Z,7.15
2023-02-05T03:22:07.904Z,12.15
2023-02-05T03:24:38.088Z,9.60
2023-02-05T03:27:07.721Z,8.23
2023-02-05T03:29:41.404Z,10.43
2023-02-05T03:32:35.138Z,9.35
2023-02-05T03:35:28.882Z,14.43
2023-02-05T03:38:09.024Z,11.83
2023-02-05T03:40:51.404Z,14.50
2023-02-05T03:43:39.393Z,12.70
2023-02-05T03:46:15.977Z,14.03
2023-02-05T03:49:07.050Z,12.45
2023-02-05T03:51:43.009Z,11.48
2023-02-05T03:54:43.510Z,14.15
2023-02-05T03:57:23.640Z,16.57
2023-02-05T03:59:54.512Z,13.05
2023-02-05T04:02:24.491Z,13.10
2023-02-05T04:04:55.609Z,14.67
2023-02-05T04:07:24.977Z,12.35
2023-02-05T04:09:54.656Z,12.20
2023-02-05T04:12:24.532Z,16.50
2023-02-05T04:14:54.782Z,15.13
2023-02-05T04:17:24.144Z,10.85
2023-02-05T04:19:53.647Z,13.18
2023-02-05T04:22:23.021Z,16.80
2023-02-05T04:24:53.695Z,18.42
2023-02-05T04:27:23.166Z,17.92
2023-02-05T04:29:53.552Z,20.08
2023-02-05T04:32:23.689Z,25.02
2023-02-05T04:34:53.393Z,21.68
2023-02-05T04:37:22.802Z,20.37
2023-02-05T04:39:52.515Z,21.42
2023-02-05T04:42:22.134Z,25.32
2023-02-05T04:44:52.972Z,25.15
2023-02-05T04:47:22.438Z,20.90
2023-02-05T04:49:51.698Z,24.40
2023-02-05T04:52:21.268Z,23.57
2023-02-05T04:54:50.577Z,25.62
2023-02-05T04:57:19.810Z,23.22
2023-02-05T04:59:49.160Z,23.83
2023-02-05T05:02:18.869Z,28.60
2023-02-05T05:04:48.241Z,30.08
2023-02-05T05:07:17.691Z,29.07
2023-02-05T05:09:46.975Z,32.15
2023-02-05T05:12:16.385Z,27.37
2023-02-05T05:14:45.655Z,27.58
2023-02-05T05:17:14.958Z,26.90
2023-02-05T05:19:44.565Z,21.60
2023-02-05T05:22:13.793Z,21.95
2023-02-05T05:24:43.571Z,18.17
2023-02-05T05:27:12.776Z,9.83
2023-02-05T05:29:42.131Z,9.00
2023-02-05T05:32:11.398Z,6.53
2023-02-05T05:34:40.876Z,5.47
2023-02-05T05:37:10.109Z,7.33
2023-02-05T05:39:57.308Z,5.15
2023-02-05T05:42:44.481Z,6.65
2023-02-05T05:45:13.714Z,8.35
2023-02-05T05:47:43.080Z,9.53
2023-02-05T05:50:12.432Z,10.10
2023-02-05T05:52:41.875Z,8.95
2023-02-05T05:55:11.113Z,11.78
2023-02-05T05:57:40.362Z,13.53
2023-02-05T06:00:11.235Z,15.72
2023-02-05T06:02:44.821Z,16.45
2023-02-05T06:05:14.505Z,18.25
2023-02-05T06:07:43.839Z,12.53
2023-02-05T06:10:13.051Z,16.07
2023-02-05T06:12:42.316Z,12.68
2023-02-05T06:15:12.944Z,15.68
2023-02-05T06:17:42.410Z,8.15
2023-02-05T06:20:12.521Z,10.58
2023-02-05T06:22:42.393Z,6.85
2023-02-05T06:25:11.890Z,8.93
2023-02-05T06:27:41.271Z,6.53
2023-02-05T06:30:11.921Z,9.15
2023-02-05T06:32:41.588Z,12.05
2023-02-05T06:35:11.108Z,6.15
2023-02-05T06:37:48.074Z,7.20
2023-02-05T06:40:12.138Z,11.97
2023-02-05T06:42:41.663Z,14.45
2023-02-05T06:45:11.676Z,12.33
2023-02-05T06:47:41.167Z,6.65
2023-02-05T06:50:10.780Z,12.43
2023-02-05T06:52:40.055Z,9.28
2023-02-05T06:55:09.477Z,7.33
2023-02-05T06:57:39.005Z,12.78
2023-02-05T07:00:09.481Z,12.33
2023-02-05T07:02:38.926Z,9.03
2023-02-05T07:05:08.823Z,7.80
2023-02-05T07:07:38.429Z,14.73
2023-02-05T07:10:09.558Z,9.43
2023-02-05T07:12:38.906Z,11.12
2023-02-05T07:15:08.827Z,13.53
2023-02-05T07:17:39.639Z,10.60
2023-02-05T07:20:09.673Z,15.32
2023-02-05T07:22:39.122Z,12.00
2023-02-05T07:25:09.336Z,12.07
2023-02-05T07:27:38.798Z,12.47
2023-02-05T07:30:09.435Z,12.85
2023-02-05T07:32:38.730Z,12.75
2023-02-05T07:35:08.095Z,10.00
2023-02-05T07:37:39.475Z,13.35
2023-02-05T07:40:10.042Z,15.15
2023-02-05T07:42:39.340Z,10.50
2023-02-05T07:45:10.459Z,12.63
2023-02-05T07:47:39.853Z,13.30
2023-02-05T07:50:09.520Z,13.60
2023-02-05T07:52:38.794Z,12.23
2023-02-05T07:55:08.669Z,18.52
2023-02-05T07:57:38.331Z,15.93
2023-02-05T08:00:09.886Z,17.17
2023-02-05T08:02:42.052Z,16.50
2023-02-05T08:05:11.686Z,13.88
2023-02-05T08:07:40.974Z,23.80
2023-02-05T08:10:12.116Z,22.87
2023-02-05T08:12:41.412Z,14.25
2023-02-05T08:15:11.356Z,10.78
2023-02-05T08:17:40.753Z,16.48
2023-02-05T08:20:11.927Z,18.80
2023-02-05T08:22:43.405Z,18.60
2023-02-05T08:25:14.923Z,20.57
2023-02-05T08:27:46.398Z,17.27
2023-02-05T08:30:17.420Z,17.65
2023-02-05T08:32:50.460Z,24.25
2023-02-05T08:35:20.061Z,24.30
2023-02-05T08:37:49.642Z,23.42
2023-02-05T08:40:19.696Z,22.70
2023-02-05T08:42:50.654Z,15.85
2023-02-05T08:45:20.845Z,17.00
2023-02-05T08:47:50.392Z,22.25
2023-02-05T08:50:21.388Z,16.32
2023-02-05T08:52:51.292Z,17.23
2023-02-05T08:55:20.658Z,27.67
2023-02-05T08:57:49.985Z,26.10
2023-02-05T09:00:21.056Z,24.77
2023-02-05T09:02:51.068Z,26.93
2023-02-05T09:05:20.446Z,26.25
2023-02-05T09:07:49.850Z,25.48
2023-02-05T09:10:19.518Z,27.00
2023-02-05T09:12:49.126Z,26.05
2023-02-05T09:15:18.580Z,27.87
2023-02-05T09:17:47.852Z,22.07
2023-02-05T09:20:17.450Z,33.33
2023-02-05T09:22:46.651Z,30.32
2023-02-05T09:25:16.287Z,29.87
2023-02-05T09:27:45.538Z,24.23
2023-02-05T09:30:15.570Z,29.67
2023-02-05T09:32:45.536Z,25.20
2023-02-05T09:35:15.157Z,26.60
2023-02-05T09:37:44.443Z,26.00
2023-02-05T09:40:22.485Z,26.77
2023-02-05T09:43:03.832Z,27.95
2023-02-05T09:45:42.269Z,22.05
2023-02-05T09:48:17.380Z,22.52
2023-02-05T09:50:46.704Z,25.82
2023-02-05T09:53:19.069Z,27.13
2023-02-05T09:55:49.168Z,26.27
2023-02-05T09:58:24.450Z,26.57
2023-02-05T10:01:05.401Z,32.58
2023-02-05T10:03:56.303Z,28.40
2023-02-05T10:06:34.538Z,29.00
2023-02-05T10:09:25.413Z,23.67
2023-02-05T10:12:06.792Z,24.05
2023-02-05T10:14:47.304Z,25.90
2023-02-05T10:17:31.745Z,26.33
2023-02-05T10:20:09.953Z,21.52
2023-02-05T10:23:05.302Z,25.45
2023-02-05T10:25:56.468Z,29.87
2023-02-05T10:29:05.008Z,28.30
2023-02-05T10:31:37.665Z,27.07
2023-02-05T10:34:16.214Z,21.23
2023-02-05T10:36:49.255Z,27.05
2023-02-05T10:39:21.661Z,31.80
2023-02-05T10:42:09.192Z,23.32
2023-02-05T10:44:41.494Z,21.05
2023-02-05T10:47:16.668Z,26.62
2023-02-05T10:49:58.481Z,23.75
2023-02-05T10:52:27.769Z,22.23
2023-02-05T10:54:57.016Z,22.77
2023-02-05T10:57:26.728Z,25.80
2023-02-05T11:00:05.973Z,22.10
2023-02-05T11:02:40.272Z,23.75
2023-02-05T11:05:18.882Z,17.85
2023-02-05T11:07:51.046Z,19.98
2023-02-05T11:10:43.324Z,24.65
2023-02-05T11:13:37.759Z,28.57
2023-02-05T11:16:30.669Z,27.75
2023-02-05T11:19:02.054Z,29.60
2023-02-05T11:21:58.624Z,22.22
2023-02-05T11:24:30.548Z,19.27
2023-02-05T11:27:18.471Z,21.42
2023-02-05T11:29:47.780Z,29.00
2023-02-05T11:32:26.657Z,20.57
2023-02-05T11:34:59.203Z,29.32
2023-02-05T11:37:29.091Z,19.75
2023-02-05T11:39:58.842Z,18.40
2023-02-05T11:42:28.062Z,30.92
2023-02-05T11:45:02.342Z,23.95
2023-02-05T11:47:37.189Z,31.33
2023-02-05T11:50:09.563Z,28.92
2023-02-05T11:52:39.530Z,17.65
2023-02-05T11:55:10.679Z,24.12
2023-02-05T11:57:42.117Z,23.42
2023-02-05T12:00:16.398Z,23.02
2023-02-05T12:02:48.633Z,15.30
2023-02-05T12:05:21.333Z,25.95
2023-02-05T12:07:53.224Z,25.60
2023-02-05T12:10:29.219Z,16.80
2023-02-05T12:13:22.972Z,25.08
2023-02-05T12:16:04.069Z,17.07
2023-02-05T12:18:51.254Z,24.45
2023-02-05T12:21:41.468Z,15.98
2023-02-05T12:24:29.593Z,21.75
2023-02-05T12:27:04.733Z,19.95
2023-02-05T12:29:54.314Z,17.20
2023-02-05T12:32:29.659Z,18.40
2023-02-05T12:35:21.701Z,21.93
2023-02-05T12:38:21.076Z,21.10
2023-02-05T12:41:05.102Z,21.80
2023-02-05T12:43:37.822Z,17.20
2023-02-05T12:46:13.445Z,13.75
2023-02-05T12:49:01.903Z,19.50
2023-02-05T12:51:55.528Z,16.30
2023-02-05T12:54:36.859Z,11.97
2023-02-05T12:57:16.056Z,15.32
2023-02-05T12:59:47.659Z,13.05
2023-02-05T13:02:26.053Z,19.27
2023-02-05T13:05:13.721Z,18.48
2023-02-05T13:07:49.449Z,12.45
2023-02-05T13:10:22.139Z,17.55
2023-02-05T13:12:54.763Z,15.83
2023-02-05T13:15:26.567Z,19.02
2023-02-05T13:18:17.153Z,23.77
2023-02-05T13:21:07.579Z,17.92
2023-02-05T13:23:55.382Z,18.42
2023-02-05T13:26:48.131Z,17.32
2023-02-05T13:29:18.935Z,15.70
2023-02-05T13:31:53.036Z,25.30
2023-02-05T13:34:23.216Z,19.30
2023-02-05T13:37:19.460Z,17.85
2023-02-05T13:40:12.928Z,19.45
2023-02-05T13:43:06.146Z,19.30
2023-02-05T13:45:53.324Z,12.93
2023-02-05T13:48:47.397Z,16.52
2023-02-05T13:51:37.829Z,18.35
2023-02-05T13:54:19.500Z,16.10
2023-02-05T13:57:03.865Z,15.98
2023-02-05T13:59:39.263Z,16.00
2023-02-05T14:02:30.212Z,29.95
2023-02-05T14:05:00.589Z,23.25
2023-02-05T14:07:39.401Z,22.42
2023-02-05T14:10:11.661Z,23.27
2023-02-05T14:12:41.150Z,21.77
2023-02-05T14:15:20.528Z,17.10
2023-02-05T14:17:53.244Z,20.15
2023-02-05T14:20:42.555Z,15.65
2023-02-05T14:23:21.123Z,23.35
2023-02-05T14:26:11.567Z,18.55
2023-02-05T14:28:49.220Z,29.50
2023-02-05T14:31:41.066Z,23.42
2023-02-05T14:34:31.734Z,22.20
2023-02-05T14:37:01.368Z,14.93
2023-02-05T14:39:38.190Z,21.50
2023-02-05T14:42:10.994Z,23.05
2023-02-05T14:44:42.161Z,22.13
2023-02-05T14:47:22.535Z,29.20
2023-02-05T14:49:53.122Z,17.20
2023-02-05T14:52:40.604Z,22.95
2023-02-05T14:55:20.369Z,22.13
2023-02-05T14:58:03.287Z,22.22
2023-02-05T15:00:38.752Z,20.05
2023-02-05T15:03:20.041Z,26.17
2023-02-05T15:05:55.759Z,21.10
2023-02-05T15:08:46.528Z,22.07
2023-02-05T15:11:52.499Z,20.02
2023-02-05T15:14:26.574Z,24.75
2023-02-05T15:17:14.466Z,22.52
2023-02-05T15:19:46.408Z,26.45
2023-02-05T15:22:35.152Z,21.23
2023-02-05T15:25:07.633Z,17.65
2023-02-05T15:27:49.485Z,15.75
2023-02-05T15:30:28.548Z,24.47
2023-02-05T15:33:06.881Z,28.75
2023-02-05T15:35:39.812Z,21.05
2023-02-05T15:38:21.296Z,24.82
2023-02-05T15:40:52.356Z,32.45
2023-02-05T15:43:27.121Z,23.20
2023-02-05T15:46:05.342Z,24.32
2023-02-05T15:48:36.899Z,21.82
2023-02-05T15:51:29.804Z,23.55
2023-02-05T15:56:32.821Z,20.82
2023-02-05T15:59:08.345Z,22.55
2023-02-05T16:01:44.952Z,28.42
2023-02-05T16:04:32.161Z,28.92
2023-02-05T16:07:02.295Z,23.25
2023-02-05T16:09:32.595Z,20.70
2023-02-05T16:12:07.747Z,32.33
2023-02-05T16:14:37.693Z,30.35
2023-02-05T16:17:16.113Z,25.37
2023-02-05T16:19:57.745Z,32.30
2023-02-05T16:22:42.192Z,27.52
2023-02-05T16:25:45.961Z,29.42
2023-02-05T16:28:41.792Z,36.03
2023-02-05T16:31:16.410Z,27.75
2023-02-05T16:33:52.272Z,27.22
2023-02-05T16:36:24.468Z,29.40
2023-02-05T16:38:59.987Z,29.35
2023-02-05T16:41:32.460Z,27.25
2023-02-05T16:44:07.694Z,33.45
2023-02-05T16:46:37.838Z,32.60
2023-02-05T16:49:28.702Z,26.95
2023-02-05T16:51:58.010Z,33.78
2023-02-05T16:54:38.823Z,30.70
2023-02-05T16:57:15.944Z,24.45
2023-02-05T16:59:56.859Z,26.80
2023-02-05T17:02:29.627Z,30.40
2023-02-05T17:05:01.488Z,28.98
2023-02-05T17:07:31.672Z,30.35
2023-02-05T17:10:19.498Z,30.43
2023-02-05T17:13:01.436Z,35.58
2023-02-05T17:15:33.292Z,28.55
2023-02-05T17:18:06.508Z,38.75
2023-02-05T17:20:36.575Z,39.13
2023-02-05T17:23:09.753Z,39.92
2023-02-05T17:25:55.042Z,27.67
2023-02-05T17:28:29.904Z,40.65
2023-02-05T17:30:59.219Z,41.85
2023-02-05T17:33:29.728Z,30.72
2023-02-05T17:35:59.518Z,30.40
2023-02-05T17:38:28.848Z,30.37
2023-02-05T17:41:16.012Z,28.98
2023-02-05T17:43:45.774Z,32.95
2023-02-05T17:46:15.960Z,39.53
2023-02-05T17:48:45.359Z,39.65
2023-02-05T17:51:17.785Z,40.35
2023-02-05T17:53:47.988Z,38.67
2023-02-05T17:56:19.137Z,35.83
2023-02-05T17:58:50.135Z,26.27
2023-02-05T18:01:19.918Z,33.10
2023-02-05T18:03:49.936Z,28.10
2023-02-05T18:06:19.894Z,35.65
2023-02-05T18:08:49.539Z,35.55
2023-02-05T18:11:18.840Z,31.85
2023-02-05T18:13:48.152Z,33.65
2023-02-05T18:16:17.510Z,25.68
2023-02-05T18:18:47.745Z,32.45
2023-02-05T18:21:17.610Z,35.20
2023-02-05T18:23:52.829Z,36.42
2023-02-05T18:26:22.968Z,27.37
2023-02-05T18:28:52.223Z,29.25
2023-02-05T18:31:22.051Z,28.65
2023-02-05T18:33:52.810Z,31.95
2023-02-05T18:36:22.675Z,28.32
2023-02-05T18:38:51.948Z,41.75
2023-02-05T18:41:26.384Z,32.93
2023-02-05T18:43:56.971Z,33.92
2023-02-05T18:46:27.342Z,35.52
2023-02-05T18:48:56.780Z,29.57
2023-02-05T18:51:26.512Z,25.80
2023-02-05T18:53:55.849Z,34.48
2023-02-05T18:56:27.625Z,31.45
2023-02-05T18:59:01.185Z,43.38
2023-02-05T19:01:32.446Z,38.05
2023-02-05T19:04:07.591Z,32.48
2023-02-05T19:06:37.015Z,34.67
2023-02-05T19:09:06.394Z,32.10
2023-02-05T19:11:38.038Z,36.83
2023-02-05T19:14:08.044Z,28.75
2023-02-05T19:16:38.209Z,29.18
2023-02-05T19:19:08.384Z,37.60
2023-02-05T19:21:37.923Z,36.73
2023-02-05T19:24:09.824Z,32.60
2023-02-05T19:26:42.691Z,31.52
2023-02-05T19:29:17.165Z,33.92
2023-02-05T19:31:47.091Z,35.75
2023-02-05T19:34:16.909Z,37.23
2023-02-05T19:36:46.286Z,32.15
2023-02-05T19:39:16.447Z,32.65
2023-02-05T19:41:45.957Z,45.10
2023-02-05T19:44:15.598Z,37.98
2023-02-05T19:46:45.496Z,36.35
2023-02-05T19:49:17.892Z,42.08
2023-02-05T19:51:48.612Z,38.05
2023-02-05T19:54:21.214Z,33.10
2023-02-05T19:56:50.000Z,42.70
2023-02-05T19:59:21.256Z,43.38
2023-02-05T20:01:50.715Z,38.88
2023-02-05T20:04:25.858Z,43.70
2023-02-05T20:06:59.761Z,33.65
2023-02-05T20:09:31.284Z,42.90
2023-02-05T20:12:01.183Z,37.17
2023-02-05T20:14:30.700Z,30.80
2023-02-05T20:16:59.980Z,29.90
2023-02-05T20:19:29.884Z,31.17
2023-02-05T20:21:59.231Z,41.35
2023-02-05T20:24:28.555Z,31.15
2023-02-05T20:26:58.583Z,31.20
2023-02-05T20:29:46.036Z,39.75
2023-02-05T20:32:15.574Z,33.63
2023-02-05T20:34:47.010Z,35.88
2023-02-05T20:37:17.584Z,34.35
2023-02-05T20:39:48.583Z,34.43
2023-02-05T20:42:18.457Z,34.67
2023-02-05T20:44:47.895Z,37.55
2023-02-05T20:47:17.707Z,32.08
2023-02-05T20:49:47.034Z,42.05
2023-02-05T20:52:16.558Z,31.80
2023-02-05T20:54:45.833Z,38.88
2023-02-05T20:57:15.595Z,41.65
2023-02-05T20:59:44.846Z,48.98
2023-02-05T21:02:14.728Z,35.85
2023-02-05T21:04:44.078Z,33.50
2023-02-05T21:07:13.870Z,32.85
2023-02-05T21:09:43.157Z,42.23
2023-02-05T21:12:12.903Z,32.50
2023-02-05T21:14:42.239Z,38.35
2023-02-05T21:17:11.643Z,33.70
2023-02-05T21:19:41.432Z,40.70
2023-02-05T21:22:10.884Z,40.33
2023-02-05T21:24:40.565Z,32.38
2023-02-05T21:27:09.962Z,32.55
2023-02-05T21:29:39.800Z,39.38
2023-02-05T21:32:09.047Z,32.53
2023-02-05T21:34:38.708Z,33.83
2023-02-05T21:37:08.077Z,26.97
2023-02-05T21:39:37.605Z,43.10
2023-02-05T21:42:07.029Z,42.23
2023-02-05T21:44:36.301Z,37.00
2023-02-05T21:47:05.883Z,37.55
2023-02-05T21:49:35.177Z,40.30
2023-02-05T21:52:14.076Z,38.53
2023-02-05T21:54:51.224Z,39.48
2023-02-05T21:57:23.876Z,37.80
2023-02-05T21:59:54.098Z,39.65
2023-02-05T22:02:27.128Z,36.25
2023-02-05T22:05:12.140Z,45.03
2023-02-05T22:07:48.104Z,47.30
2023-02-05T22:10:25.811Z,39.33
2023-02-05T22:12:57.741Z,42.50
2023-02-05T22:15:31.402Z,37.38
2023-02-05T22:18:09.159Z,35.20
2023-02-05T22:20:41.030Z,41.23
2023-02-05T22:23:12.662Z,48.43
2023-02-05T22:25:48.034Z,41.65
2023-02-05T22:28:25.959Z,42.00
2023-02-05T22:31:03.700Z,36.55
2023-02-05T22:33:34.757Z,28.75
2023-02-05T22:36:05.670Z,44.77
2023-02-05T22:38:36.783Z,45.20
2023-02-05T22:41:10.500Z,53.45
2023-02-05T22:43:40.198Z,51.90
2023-02-05T22:46:12.538Z,43.08
2023-02-05T22:48:43.858Z,48.60
2023-02-05T22:51:15.528Z,45.65
2023-02-05T22:53:45.044Z,45.05
2023-02-05T22:56:16.855Z,47.50
2023-02-05T22:58:47.881Z,39.70
2023-02-05T23:01:26.144Z,47.08
2023-02-05T23:03:56.499Z,57.15
2023-02-05T23:06:28.105Z,47.17
2023-02-05T23:08:59.472Z,49.80
2023-02-05T23:11:31.062Z,45.70
2023-02-05T23:14:01.937Z,43.73
2023-02-05T23:16:36.995Z,38.95
2023-02-05T23:19:09.391Z,46.37
2023-02-05T23:21:40.085Z,42.40
2023-02-05T23:24:10.195Z,51.02
2023-02-05T23:26:44.126Z,54.00
2023-02-05T23:29:15.702Z,36.83
2023-02-05T23:31:45.493Z,44.37
2023-02-05T23:34:15.089Z,40.17
2023-02-05T23:36:44.644Z,40.90
2023-02-05T23:39:13.964Z,35.68
2023-02-05T23:41:43.195Z,45.45
2023-02-05T23:44:20.744Z,37.53
2023-02-05T23:46:50.993Z,37.48
2023-02-05T23:49:21.947Z,44.80
2023-02-05T23:51:53.638Z,39.20
2023-02-05T23:54:24.009Z,51.00
2023-02-05T23:56:53.648Z,44.53
2023-02-05T23:59:23.172Z,45.08
